METAR Data
IDs: Format: Raw Decoded Include TAF

Data at: 1216 UTC 23 Mar 2019

METAR for:PADK (Adak (NAS), AK, US)
Text:PADK 231156Z AUTO 22004KT 10SM UP OVC022 01/M04 A2966 RMK AO2 UPB31 SLP042 P0000 60000 70001 T00061039 10006 21033 58027 FZRANO
Temperature: 0.6°C ( 33°F)
Dewpoint: -3.9°C ( 25°F) [RH = 72%]
Pressure (altimeter):29.66 inches Hg (1004.5 mb) [Sea level pressure: 1004.2 mb]
Winds:from the SW (220 degrees) at 5 MPH (4 knots; 2.1 m/s)
Visibility:10 or more sm (16+ km)
Ceiling:2200 feet AGL
Clouds: overcast cloud deck at 2200 feet AGL
Weather:UP (unknown precipitation)
QC Flag:automated observation with no human augmentation
Text:PADK 231056Z AUTO 00000KT 10SM BKN028 OVC080 M01/M04 A2968 RMK AO2 SLP049 T10111044 FZRANO
Temperature: -1.1°C ( 30°F)
Dewpoint: -4.4°C ( 24°F) [RH = 78%]
Pressure (altimeter):29.68 inches Hg (1005.2 mb) [Sea level pressure: 1004.9 mb]
Winds:calm
Visibility:10 or more sm (16+ km)
Ceiling:2800 feet AGL
Clouds: broken clouds at 2800 feet AGL, overcast cloud deck at 8000 feet AGL
QC Flag:automated observation with no human augmentation
Text:PADK 231040Z AUTO 00000KT 10SM OVC028 00/M05 A2968 RMK AO2 FZRANO
Temperature: 0.0°C ( 32°F)
Dewpoint: -5.0°C ( 23°F) [RH = 69%]
Pressure (altimeter):29.68 inches Hg (1005.2 mb)
Winds:calm
Visibility:10 or more sm (16+ km)
Ceiling:2800 feet AGL
Clouds: overcast cloud deck at 2800 feet AGL
QC Flag:automated observation with no human augmentation
Text:PADK 230956Z AUTO 23003KT 10SM OVC036 M02/M05 A2972 RMK AO2 SLP063 T10171050 400221033 FZRANO
Temperature: -1.7°C ( 29°F)
Dewpoint: -5.0°C ( 23°F) [RH = 78%]
Pressure (altimeter):29.72 inches Hg (1006.5 mb) [Sea level pressure: 1006.3 mb]
Winds:from the SW (230 degrees) at 3 MPH (3 knots; 1.5 m/s)
Visibility:10 or more sm (16+ km)
Ceiling:3600 feet AGL
Clouds: overcast cloud deck at 3600 feet AGL
QC Flag:automated observation with no human augmentation
Text:PADK 230856Z AUTO 24003KT 10SM OVC110 M03/M06 A2974 RMK AO2 SLP069 T10281056 56005 FZRANO
Temperature: -2.8°C ( 27°F)
Dewpoint: -5.6°C ( 22°F) [RH = 81%]
Pressure (altimeter):29.74 inches Hg (1007.2 mb) [Sea level pressure: 1006.9 mb]
Winds:from the WSW (240 degrees) at 3 MPH (3 knots; 1.5 m/s)
Visibility:10 or more sm (16+ km)
Ceiling:11000 feet AGL
Clouds: overcast cloud deck at 11000 feet AGL
QC Flag:automated observation with no human augmentation
Text:PADK 230756Z AUTO 24003KT 10SM FEW040 BKN110 M03/M06 A2975 RMK AO2 SLP073 T10331061 FZRANO
Temperature: -3.3°C ( 26°F)
Dewpoint: -6.1°C ( 21°F) [RH = 81%]
Pressure (altimeter):29.75 inches Hg (1007.5 mb) [Sea level pressure: 1007.3 mb]
Winds:from the WSW (240 degrees) at 3 MPH (3 knots; 1.5 m/s)
Visibility:10 or more sm (16+ km)
Ceiling:11000 feet AGL
Clouds: few clouds at 4000 feet AGL, broken clouds at 11000 feet AGL
QC Flag:automated observation with no human augmentation
Text:PADK 230656Z AUTO 26004KT 10SM CLR M02/M06 A2974 RMK AO2 SLP071 T10221061 FZRANO
Temperature: -2.2°C ( 28°F)
Dewpoint: -6.1°C ( 21°F) [RH = 75%]
Pressure (altimeter):29.74 inches Hg (1007.2 mb) [Sea level pressure: 1007.1 mb]
Winds:from the W (260 degrees) at 5 MPH (4 knots; 2.1 m/s)
Visibility:10 or more sm (16+ km)
Ceiling:at least 12,000 feet AGL
Clouds:sky clear below 12,000 feet AGL
QC Flag:automated observation with no human augmentation

TAF for:PADK (Adak (NAS), AK, US)
Text:No data found